Time;durP1;ratioP1;P1;durP2;ratioP2;P2;SDS_P1;SDS_P2;PMS_P1;PMS_P2;Temp;Humidity;BMP_temperature;BMP_pressure;BME280_temperature;BME280_humidity;BME280_pressure;Samples;Min_cycle;Max_cycle;Signal;HPM_P1;HPM_P2
2023/01/28 00:01:18;;;;;;;17.50;10.90;;;1.50;99.90;;;;;;4888086;29;20180;-78
2023/01/28 00:03:49;;;;;;;15.90;10.18;;;1.50;99.90;;;;;;4904605;29;20666;-79
2023/01/28 00:06:17;;;;;;;15.75;10.82;;;1.50;99.90;;;;;;4902005;29;20496;-78
2023/01/28 00:08:44;;;;;;;15.38;9.77;;;1.60;99.90;;;;;;4888716;29;20147;-79
2023/01/28 00:11:12;;;;;;;17.60;10.88;;;1.60;99.90;;;;;;4888108;29;20434;-78
2023/01/28 00:13:39;;;;;;;17.40;10.73;;;1.60;99.90;;;;;;4886966;29;20060;-78
2023/01/28 00:16:08;;;;;;;14.45;10.13;;;1.50;99.90;;;;;;4889086;29;20324;-79
2023/01/28 00:18:35;;;;;;;18.83;10.85;;;1.50;99.90;;;;;;4904970;29;20135;-79
2023/01/28 00:21:09;;;;;;;15.38;10.43;;;1.50;99.90;;;;;;4887706;29;20088;-78
2023/01/28 00:23:37;;;;;;;15.70;10.85;;;1.50;99.90;;;;;;4904871;29;20071;-79
2023/01/28 00:26:06;;;;;;;13.90;9.25;;;1.50;99.90;;;;;;4904315;29;20117;-79
2023/01/28 00:28:33;;;;;;;17.43;10.83;;;1.50;99.90;;;;;;4904828;29;20063;-79
2023/01/28 00:31:06;;;;;;;16.80;10.55;;;1.40;99.90;;;;;;4903266;29;20079;-78
2023/01/28 00:33:32;;;;;;;14.38;9.98;;;1.40;99.90;;;;;;4904693;29;20064;-78
2023/01/28 00:36:00;;;;;;;18.25;11.32;;;1.40;99.90;;;;;;4904178;29;20107;-78
2023/01/28 00:38:28;;;;;;;16.85;9.85;;;1.40;99.90;;;;;;4902321;29;20127;-78
2023/01/28 00:40:55;;;;;;;15.75;10.40;;;1.40;99.90;;;;;;4891775;29;20045;-78
2023/01/28 00:43:22;;;;;;;16.70;10.82;;;1.40;99.90;;;;;;4903168;29;20072;-79
2023/01/28 00:45:48;;;;;;;15.95;10.10;;;1.40;99.90;;;;;;4897073;29;20053;-78
2023/01/28 00:48:16;;;;;;;15.85;10.73;;;1.40;99.90;;;;;;4901208;29;20511;-77
2023/01/28 00:50:44;;;;;;;20.58;11.60;;;1.40;99.90;;;;;;4900914;29;20088;-78
2023/01/28 00:53:11;;;;;;;16.52;10.00;;;1.40;99.90;;;;;;4899820;29;20053;-78
2023/01/28 00:55:38;;;;;;;16.98;10.85;;;1.40;99.90;;;;;;4903637;29;20499;-77
2023/01/28 00:58:04;;;;;;;16.38;10.98;;;1.40;99.90;;;;;;4901368;29;20049;-78
2023/01/28 01:00:31;;;;;;;18.50;11.60;;;1.40;99.90;;;;;;4900481;29;20105;-79
2023/01/28 01:02:59;;;;;;;16.05;10.25;;;1.40;99.90;;;;;;4901159;29;20087;-78
2023/01/28 01:05:25;;;;;;;19.20;10.48;;;1.40;99.90;;;;;;4901010;29;20135;-78
2023/01/28 01:07:52;;;;;;;16.52;10.80;;;1.30;99.90;;;;;;4883136;29;20468;-78
2023/01/28 01:10:19;;;;;;;15.38;10.15;;;1.30;99.90;;;;;;4900877;29;20151;-78
2023/01/28 01:12:47;;;;;;;15.48;9.73;;;1.30;99.90;;;;;;4899819;29;20075;-78
2023/01/28 01:15:15;;;;;;;16.77;10.77;;;1.30;99.90;;;;;;4881259;29;20052;-78
2023/01/28 01:17:45;;;;;;;17.98;10.63;;;1.30;99.90;;;;;;4900436;29;20080;-78
2023/01/28 01:20:15;;;;;;;15.48;7.70;;;1.30;99.90;;;;;;4900445;29;20079;-78
2023/01/28 01:22:42;;;;;;;18.13;11.02;;;1.20;99.90;;;;;;4883850;29;20141;-78
2023/01/28 01:25:10;;;;;;;16.20;10.48;;;1.30;99.90;;;;;;4900569;29;20137;-78
2023/01/28 01:27:37;;;;;;;18.42;11.45;;;1.30;99.90;;;;;;4900578;29;20110;-78
2023/01/28 01:30:04;;;;;;;16.33;10.55;;;1.30;99.90;;;;;;4882947;29;20055;-79
2023/01/28 01:32:33;;;;;;;17.13;10.98;;;1.40;99.90;;;;;;4901208;29;20061;-78
2023/01/28 01:35:04;;;;;;;17.55;9.65;;;1.40;99.90;;;;;;4901325;29;20563;-78
2023/01/28 01:37:31;;;;;;;18.40;10.95;;;1.40;99.90;;;;;;4900410;29;20059;-78
2023/01/28 01:40:00;;;;;;;17.17;10.80;;;1.30;99.90;;;;;;4900342;29;20052;-78
2023/01/28 01:42:27;;;;;;;17.00;10.95;;;1.30;99.90;;;;;;4900911;29;20113;-78
2023/01/28 01:44:57;;;;;;;16.27;11.00;;;1.20;99.90;;;;;;4901134;29;20153;-78
2023/01/28 01:47:45;;;;;;;17.20;10.55;;;1.20;99.90;;;;;;4898845;29;20104;-78
2023/01/28 01:50:19;;;;;;;16.80;10.43;;;1.10;99.90;;;;;;4901469;29;20483;-78
2023/01/28 01:52:49;;;;;;;21.35;11.05;;;1.10;99.90;;;;;;4904889;29;20059;-78
2023/01/28 01:55:19;;;;;;;16.85;10.88;;;1.10;99.90;;;;;;4904347;29;20080;-79
2023/01/28 01:57:48;;;;;;;;;;;1.10;99.90;;;;;;4907104;29;20064;-78
2023/01/28 02:00:16;;;;;;;15.60;9.45;;;1.10;99.90;;;;;;4907489;29;19954;-78
2023/01/28 02:02:48;;;;;;;18.50;11.88;;;1.00;99.90;;;;;;4905065;29;20111;-78
2023/01/28 02:05:17;;;;;;;16.02;10.82;;;1.10;99.90;;;;;;4886568;29;20052;-79
2023/01/28 02:07:47;;;;;;;17.92;11.63;;;1.10;99.90;;;;;;4899144;29;20538;-78
2023/01/28 02:10:14;;;;;;;17.40;10.55;;;1.20;99.90;;;;;;4885042;29;20095;-79
2023/01/28 02:13:07;;;;;;;17.38;10.80;;;1.10;99.90;;;;;;4893603;29;20068;-79
2023/01/28 02:15:34;;;;;;;16.73;10.55;;;1.20;99.90;;;;;;4899670;29;20120;-79
2023/01/28 02:18:01;;;;;;;16.42;10.25;;;1.20;99.90;;;;;;4903261;29;20059;-78
2023/01/28 02:20:54;;;;;;;17.98;11.05;;;1.20;99.90;;;;;;4903721;29;20057;-78
2023/01/28 02:23:34;;;;;;;16.05;10.38;;;1.30;99.90;;;;;;4903550;29;20048;-77
2023/01/28 02:26:09;;;;;;;;;;;1.30;99.90;;;;;;4904649;29;20084;-77
2023/01/28 02:29:15;;;;;;;15.85;9.68;;;1.30;99.90;;;;;;4901845;29;19923;-77
2023/01/28 02:31:57;;;;;;;18.42;11.05;;;1.30;99.90;;;;;;4878929;29;20075;-77
2023/01/28 02:34:37;;;;;;;17.83;10.95;;;1.30;99.90;;;;;;4899585;29;20054;-78
2023/01/28 02:37:07;;;;;;;16.52;10.65;;;1.30;99.90;;;;;;4899377;29;20139;-78
2023/01/28 02:39:41;;;;;;;22.38;11.15;;;1.30;99.90;;;;;;4899730;29;20058;-78
2023/01/28 02:42:21;;;;;;;18.05;11.30;;;1.30;99.90;;;;;;4899159;29;20053;-78
2023/01/28 02:44:47;;;;;;;;;;;1.30;99.90;;;;;;4897283;29;20132;-78
2023/01/28 02:50:08;;;;;;;18.23;11.35;;;1.30;99.90;;;;;;4897086;29;20056;-77
2023/01/28 02:55:36;;;;;;;19.03;11.13;;;1.40;99.90;;;;;;4896630;29;20481;-78
2023/01/28 02:58:28;;;;;;;17.85;11.07;;;1.40;99.90;;;;;;4898735;29;20348;-78
2023/01/28 03:01:29;;;;;;;16.63;11.00;;;1.50;99.90;;;;;;4898877;29;20139;-77
2023/01/28 03:04:02;;;;;;;18.42;11.13;;;1.50;99.90;;;;;;4898967;29;20049;-78
2023/01/28 03:06:38;;;;;;;19.27;11.25;;;1.50;99.90;;;;;;4897043;29;20503;-77
2023/01/28 03:09:21;;;;;;;18.23;11.30;;;1.50;99.90;;;;;;4899037;29;20143;-78
2023/01/28 03:38:17;;;;;;;15.35;9.98;;;1.30;99.90;;;;;;4898504;29;20056;-79
2023/01/28 03:41:00;;;;;;;16.15;10.43;;;1.30;99.90;;;;;;4894573;29;20135;-79
2023/01/28 03:43:27;;;;;;;15.45;9.85;;;1.40;99.90;;;;;;4898389;29;20120;-78
2023/01/28 03:45:55;;;;;;;16.02;11.10;;;1.40;99.90;;;;;;4896676;29;21821;-78
2023/01/28 03:48:26;;;;;;;14.82;9.52;;;1.40;99.90;;;;;;4877501;29;20139;-78
2023/01/28 03:50:59;;;;;;;16.58;10.73;;;1.40;99.90;;;;;;4896592;29;20665;-78
2023/01/28 03:53:27;;;;;;;16.30;9.77;;;1.40;99.90;;;;;;4898430;29;20510;-78
2023/01/28 03:55:55;;;;;;;16.27;9.68;;;1.40;99.90;;;;;;4898213;29;20056;-78
2023/01/28 03:58:45;;;;;;;16.45;9.82;;;1.40;99.90;;;;;;4896500;29;20499;-78
2023/01/28 04:01:12;;;;;;;15.98;10.60;;;1.50;99.90;;;;;;4894252;29;20055;-79
2023/01/28 04:03:39;;;;;;;17.50;10.23;;;1.50;99.90;;;;;;4887082;29;20131;-78
2023/01/28 04:06:08;;;;;;;16.10;10.60;;;1.50;99.90;;;;;;4898578;29;20502;-78
2023/01/28 04:08:35;;;;;;;14.85;9.55;;;1.50;99.90;;;;;;4881659;29;20055;-79
2023/01/28 04:11:14;;;;;;;16.67;10.75;;;1.50;99.90;;;;;;4897717;29;20498;-78
2023/01/28 04:13:42;;;;;;;15.88;10.02;;;1.50;99.90;;;;;;4880593;29;20060;-78
2023/01/28 04:16:09;;;;;;;15.00;9.27;;;1.50;99.90;;;;;;4880620;29;20689;-78
2023/01/28 04:18:36;;;;;;;17.15;10.55;;;1.60;99.90;;;;;;4898025;29;20069;-78
2023/01/28 04:21:03;;;;;;;15.80;10.25;;;1.50;99.90;;;;;;4895230;29;20064;-78
2023/01/28 04:23:30;;;;;;;17.52;10.30;;;1.50;99.90;;;;;;4893631;29;20091;-78
2023/01/28 04:25:56;;;;;;;12.27;8.50;;;1.50;99.90;;;;;;4889182;29;20140;-79
2023/01/28 04:28:23;;;;;;;15.15;9.80;;;1.50;99.90;;;;;;4899058;29;20052;-78
2023/01/28 04:30:51;;;;;;;12.73;8.93;;;1.40;99.90;;;;;;4898570;29;20059;-78
2023/01/28 04:33:18;;;;;;;14.60;9.57;;;1.50;99.90;;;;;;4897778;29;20056;-79
2023/01/28 04:35:45;;;;;;;13.57;8.95;;;1.50;99.90;;;;;;4901975;29;21817;-78
2023/01/28 04:38:11;;;;;;;13.90;8.75;;;1.50;99.90;;;;;;4884908;29;20049;-78
2023/01/28 04:40:38;;;;;;;13.02;8.25;;;1.50;99.90;;;;;;4900929;29;20048;-78
2023/01/28 04:43:04;;;;;;;12.63;9.13;;;1.50;99.90;;;;;;4884665;29;20044;-79
2023/01/28 04:45:31;;;;;;;11.13;7.57;;;1.60;99.90;;;;;;4900681;29;20093;-78
2023/01/28 04:47:58;;;;;;;14.23;9.13;;;1.50;99.90;;;;;;4901777;29;20084;-78
2023/01/28 04:50:25;;;;;;;14.45;9.45;;;1.50;99.90;;;;;;4901252;29;20159;-78
2023/01/28 04:52:51;;;;;;;13.00;9.10;;;1.50;99.90;;;;;;4901306;29;20063;-79
2023/01/28 04:55:18;;;;;;;14.95;9.10;;;1.50;99.90;;;;;;4901143;29;20049;-79
2023/01/28 04:57:47;;;;;;;15.18;8.98;;;1.50;99.90;;;;;;4881828;29;20140;-77
2023/01/28 05:00:14;;;;;;;14.07;9.03;;;1.50;99.90;;;;;;4900805;29;20064;-78
2023/01/28 05:02:41;;;;;;;12.60;8.93;;;1.50;99.90;;;;;;4901032;29;20099;-78
2023/01/28 05:05:08;;;;;;;13.90;9.35;;;1.50;99.90;;;;;;4900723;29;20044;-79
2023/01/28 05:07:35;;;;;;;12.32;8.82;;;1.50;99.90;;;;;;4899145;29;20135;-78
2023/01/28 05:10:02;;;;;;;13.68;8.23;;;1.50;99.90;;;;;;4893905;29;20100;-78
2023/01/28 05:12:31;;;;;;;13.38;8.93;;;1.50;99.90;;;;;;4901119;29;20117;-79
2023/01/28 05:14:59;;;;;;;13.57;8.88;;;1.40;99.90;;;;;;4901073;29;20053;-78
2023/01/28 05:17:27;;;;;;;14.73;8.43;;;1.40;99.90;;;;;;4895344;29;20136;-78
2023/01/28 05:19:53;;;;;;;15.93;8.65;;;1.40;99.90;;;;;;4899323;29;20057;-78
2023/01/28 05:22:20;;;;;;;13.57;8.80;;;1.30;99.90;;;;;;4898958;29;20052;-78
2023/01/28 05:24:47;;;;;;;14.00;8.75;;;1.40;99.90;;;;;;4897187;29;20507;-78
2023/01/28 05:27:14;;;;;;;15.70;9.15;;;1.40;99.90;;;;;;4901078;29;20471;-78
2023/01/28 05:29:41;;;;;;;12.52;9.23;;;1.40;99.90;;;;;;4887292;29;20102;-78
2023/01/28 05:32:07;;;;;;;12.65;8.50;;;1.30;99.90;;;;;;4897760;29;20067;-78
2023/01/28 05:34:34;;;;;;;12.57;8.52;;;1.30;99.90;;;;;;4898408;29;20146;-78
2023/01/28 05:37:01;;;;;;;13.88;8.93;;;1.30;99.90;;;;;;4899522;29;20056;-78
2023/01/28 05:39:28;;;;;;;12.32;9.00;;;1.20;99.90;;;;;;4898852;29;20053;-78
2023/01/28 05:41:54;;;;;;;15.45;9.23;;;1.30;99.90;;;;;;4899358;29;20059;-78
2023/01/28 05:44:21;;;;;;;13.23;8.85;;;1.30;99.90;;;;;;4900412;29;20061;-78
2023/01/28 05:46:48;;;;;;;14.02;9.65;;;1.30;99.90;;;;;;4898593;29;20052;-78
2023/01/28 05:49:15;;;;;;;13.60;8.77;;;1.30;99.90;;;;;;4897194;29;20087;-79
2023/01/28 05:51:42;;;;;;;13.77;8.68;;;1.30;99.90;;;;;;4899821;29;20056;-79
2023/01/28 05:54:09;;;;;;;14.60;8.48;;;1.30;99.90;;;;;;4906559;29;20056;-77
2023/01/28 05:56:36;;;;;;;12.43;8.85;;;1.30;99.90;;;;;;4906316;29;20052;-77
2023/01/28 05:59:04;;;;;;;13.35;8.38;;;1.30;99.90;;;;;;4902723;29;20063;-79
2023/01/28 06:01:31;;;;;;;15.25;9.05;;;1.30;99.90;;;;;;4897103;29;20072;-78
2023/01/28 06:03:59;;;;;;;13.30;8.90;;;1.30;99.90;;;;;;4899598;29;20135;-78
2023/01/28 06:06:25;;;;;;;11.65;7.93;;;1.30;99.90;;;;;;4899356;29;20049;-78
2023/01/28 06:08:52;;;;;;;12.88;8.40;;;1.30;99.90;;;;;;4899799;29;20058;-78
2023/01/28 06:11:19;;;;;;;10.23;7.22;;;1.30;99.90;;;;;;4898294;29;20586;-78
2023/01/28 06:13:46;;;;;;;11.27;7.53;;;1.30;99.90;;;;;;4899797;29;20501;-78
2023/01/28 06:16:12;;;;;;;14.35;8.25;;;1.20;99.90;;;;;;4897504;29;20064;-78
2023/01/28 06:18:43;;;;;;;10.68;7.80;;;1.30;99.90;;;;;;4899870;29;20091;-78
2023/01/28 06:21:10;;;;;;;11.95;8.73;;;1.30;99.90;;;;;;4898430;29;20399;-78
2023/01/28 06:23:37;;;;;;;13.50;9.13;;;1.20;99.90;;;;;;4900521;29;20480;-78
2023/01/28 06:26:03;;;;;;;11.15;7.53;;;1.30;99.90;;;;;;4899992;29;20056;-78
2023/01/28 06:28:30;;;;;;;12.20;8.50;;;1.30;99.90;;;;;;4874998;29;20085;-78
2023/01/28 06:30:57;;;;;;;13.32;7.90;;;1.40;99.90;;;;;;4898718;29;20139;-78
2023/01/28 06:33:24;;;;;;;11.07;7.75;;;1.40;99.90;;;;;;4899847;29;20056;-78
2023/01/28 06:35:51;;;;;;;12.45;8.15;;;1.40;99.90;;;;;;4901690;29;20102;-78
2023/01/28 06:38:18;;;;;;;14.68;9.00;;;1.40;99.90;;;;;;4900021;29;20060;-77
2023/01/28 06:40:50;;;;;;;12.52;7.93;;;1.40;99.90;;;;;;4899480;29;20044;-78
2023/01/28 06:43:17;;;;;;;13.40;9.00;;;1.40;99.90;;;;;;4899889;29;20076;-78
2023/01/28 06:45:44;;;;;;;12.45;7.93;;;1.40;99.90;;;;;;4884909;29;20491;-78
2023/01/28 06:48:11;;;;;;;12.23;7.90;;;1.40;99.90;;;;;;4898702;29;20503;-77
2023/01/28 06:50:38;;;;;;;12.27;7.68;;;1.40;99.90;;;;;;4873807;29;20128;-78
2023/01/28 06:53:04;;;;;;;12.68;7.82;;;1.40;99.90;;;;;;4881714;29;20116;-78
2023/01/28 06:55:31;;;;;;;12.85;8.40;;;1.40;99.90;;;;;;4898461;29;20059;-78
2023/01/28 06:57:58;;;;;;;11.85;8.15;;;1.40;99.90;;;;;;4898699;29;20053;-78
2023/01/28 07:00:24;;;;;;;13.00;8.45;;;1.40;99.90;;;;;;4898701;29;20058;-78
2023/01/28 07:02:55;;;;;;;14.20;8.00;;;1.40;99.90;;;;;;4896650;29;20052;-78
2023/01/28 07:05:22;;;;;;;12.80;8.20;;;1.40;99.90;;;;;;4899288;29;20127;-78
2023/01/28 07:07:49;;;;;;;11.18;7.15;;;1.40;99.90;;;;;;4897728;29;20049;-78
2023/01/28 07:10:16;;;;;;;12.90;8.43;;;1.40;99.90;;;;;;4898289;29;20135;-78
2023/01/28 07:12:43;;;;;;;12.65;8.93;;;1.40;99.90;;;;;;4898082;29;20108;-78
2023/01/28 07:15:13;;;;;;;12.60;7.88;;;1.40;99.90;;;;;;4897876;29;20053;-78
2023/01/28 07:17:44;;;;;;;13.98;7.85;;;1.40;99.90;;;;;;4879199;29;20156;-79
2023/01/28 07:20:13;;;;;;;14.68;8.52;;;1.50;99.90;;;;;;4881049;29;20049;-76
2023/01/28 07:22:43;;;;;;;;;;;1.50;99.90;;;;;;4899688;29;20128;-78
2023/01/28 07:25:12;;;;;;;11.10;7.10;;;1.50;99.90;;;;;;4892701;29;19935;-78
2023/01/28 07:27:44;;;;;;;12.13;7.82;;;1.50;99.90;;;;;;4894708;29;20372;-78
2023/01/28 07:30:11;;;;;;;11.60;7.22;;;1.60;99.90;;;;;;4897572;29;20430;-78
2023/01/28 07:32:38;;;;;;;13.43;7.65;;;1.60;99.90;;;;;;4898291;29;20049;-78
2023/01/28 07:35:05;;;;;;;11.25;7.70;;;1.60;99.90;;;;;;4898804;29;20048;-78
2023/01/28 07:37:32;;;;;;;11.25;7.80;;;1.60;99.90;;;;;;4899038;29;20049;-78
2023/01/28 07:39:59;;;;;;;12.75;7.68;;;1.70;99.90;;;;;;4897338;29;20627;-78
2023/01/28 07:42:25;;;;;;;13.77;8.40;;;1.70;99.90;;;;;;4898652;29;20108;-78
2023/01/28 07:44:52;;;;;;;13.00;8.70;;;1.70;99.90;;;;;;4898627;29;20041;-78
2023/01/28 07:47:19;;;;;;;12.05;7.75;;;1.70;99.90;;;;;;4896775;29;20570;-79
2023/01/28 07:49:46;;;;;;;13.88;8.13;;;1.80;99.90;;;;;;4898299;29;20059;-78
2023/01/28 07:52:14;;;;;;;10.82;7.97;;;1.80;99.90;;;;;;4898410;29;20053;-78
2023/01/28 07:54:40;;;;;;;12.23;7.28;;;1.80;99.90;;;;;;4898216;29;20094;-78
2023/01/28 07:57:11;;;;;;;13.35;7.95;;;1.80;99.90;;;;;;4897957;29;20049;-79
2023/01/28 07:59:37;;;;;;;12.70;7.63;;;1.90;99.90;;;;;;4898465;29;20566;-78
2023/01/28 08:02:04;;;;;;;11.95;7.65;;;1.90;99.90;;;;;;4897811;29;20514;-78
2023/01/28 08:04:31;;;;;;;11.15;7.40;;;1.90;99.90;;;;;;4898327;29;20057;-78
2023/01/28 08:06:57;;;;;;;12.77;7.43;;;1.90;99.90;;;;;;4898158;29;20045;-78
2023/01/28 08:09:24;;;;;;;9.88;6.07;;;1.90;99.90;;;;;;4899953;29;20061;-77
2023/01/28 08:11:52;;;;;;;10.82;6.75;;;1.90;99.90;;;;;;4899965;29;20506;-79
2023/01/28 08:14:18;;;;;;;10.45;7.60;;;1.90;99.90;;;;;;4893946;29;20143;-78
2023/01/28 08:16:45;;;;;;;10.73;7.32;;;1.90;99.90;;;;;;4901223;29;20511;-78
2023/01/28 08:19:12;;;;;;;9.10;6.50;;;1.90;99.90;;;;;;4902457;29;20049;-78
2023/01/28 08:21:38;;;;;;;10.90;7.07;;;1.90;99.90;;;;;;4901400;29;20048;-78
2023/01/28 08:24:05;;;;;;;11.05;6.15;;;1.90;99.90;;;;;;4901011;29;20195;-78
2023/01/28 08:26:32;;;;;;;10.95;6.05;;;1.90;99.90;;;;;;4901575;29;20056;-78
2023/01/28 08:28:59;;;;;;;8.20;5.80;;;1.90;99.90;;;;;;4899135;29;20104;-78
2023/01/28 08:31:28;;;;;;;8.52;5.63;;;1.90;99.90;;;;;;4900963;29;20052;-78
2023/01/28 08:33:54;;;;;;;9.20;5.80;;;1.90;99.90;;;;;;4885637;29;20091;-78
2023/01/28 08:36:22;;;;;;;10.20;6.15;;;1.90;99.90;;;;;;4900556;29;20438;-78
2023/01/28 08:38:53;;;;;;;9.35;6.22;;;1.90;99.90;;;;;;4901429;29;20136;-78
2023/01/28 08:41:21;;;;;;;8.18;5.47;;;1.90;99.90;;;;;;4881602;29;20045;-78
2023/01/28 08:43:48;;;;;;;7.75;5.65;;;1.90;99.90;;;;;;4901233;29;20056;-78
2023/01/28 08:46:15;;;;;;;9.10;6.07;;;1.90;99.90;;;;;;4900067;29;20072;-78
2023/01/28 08:48:42;;;;;;;9.10;5.88;;;2.00;99.90;;;;;;4899557;29;20049;-78
2023/01/28 08:51:09;;;;;;;10.45;6.60;;;2.00;99.90;;;;;;4900547;29;20157;-78
2023/01/28 08:53:35;;;;;;;11.10;6.93;;;2.00;99.90;;;;;;4901853;29;20100;-78
2023/01/28 08:56:02;;;;;;;10.32;6.35;;;2.10;99.90;;;;;;4901470;29;20060;-77
2023/01/28 08:58:29;;;;;;;8.95;6.57;;;2.10;99.90;;;;;;4899716;29;20582;-78
2023/01/28 09:00:56;;;;;;;12.93;7.43;;;2.20;99.90;;;;;;4898900;29;20131;-78
2023/01/28 09:03:23;;;;;;;7.97;5.88;;;2.20;99.90;;;;;;4899687;29;20483;-78
2023/01/28 09:05:49;;;;;;;10.30;6.53;;;2.30;99.90;;;;;;4901088;29;20080;-77
2023/01/28 09:08:16;;;;;;;7.10;5.57;;;2.20;99.90;;;;;;4900979;29;20044;-78
2023/01/28 09:10:43;;;;;;;8.73;6.20;;;2.30;99.90;;;;;;4882199;29;20514;-78
2023/01/28 09:13:13;;;;;;;10.02;6.57;;;2.30;99.90;;;;;;4882322;29;20088;-78
2023/01/28 09:15:40;;;;;;;;;;;2.30;99.90;;;;;;4880026;29;20056;-78
2023/01/28 09:18:07;;;;;;;13.35;6.55;;;2.40;99.90;;;;;;4900328;29;19924;-78
2023/01/28 09:20:34;;;;;;;8.30;6.00;;;2.40;99.90;;;;;;4900874;29;20100;-78
2023/01/28 09:23:01;;;;;;;9.77;6.32;;;2.50;99.90;;;;;;4901171;29;20055;-78
2023/01/28 09:25:28;;;;;;;10.82;6.13;;;2.50;99.90;;;;;;4899460;29;20469;-78
2023/01/28 09:27:55;;;;;;;8.50;6.07;;;2.50;99.90;;;;;;4899314;29;20049;-78
2023/01/28 09:30:22;;;;;;;9.38;6.35;;;2.60;99.90;;;;;;4894287;29;20143;-77
2023/01/28 09:32:50;;;;;;;7.60;5.55;;;2.60;99.90;;;;;;4887067;29;20053;-76
2023/01/28 09:35:18;;;;;;;8.93;5.28;;;2.60;99.90;;;;;;4896034;29;20048;-77
2023/01/28 09:37:45;;;;;;;8.18;5.35;;;2.60;99.90;;;;;;4909808;29;20131;-77
2023/01/28 09:40:32;;;;;;;7.60;5.35;;;2.70;99.90;;;;;;4906176;29;20131;-78
2023/01/28 09:43:19;;;;;;;6.97;4.82;;;2.70;99.90;;;;;;4888589;29;20044;-78
2023/01/28 09:45:48;;;;;;;8.27;5.47;;;2.70;99.90;;;;;;4863061;29;20544;-77
2023/01/28 09:48:21;;;;;;;9.25;5.38;;;2.70;99.90;;;;;;4911409;29;20100;-80
2023/01/28 09:50:50;;;;;;;8.80;5.95;;;2.80;99.90;;;;;;4913201;29;20494;-78
2023/01/28 09:53:30;;;;;;;8.45;5.80;;;2.80;99.90;;;;;;4911854;29;20100;-78
2023/01/28 09:56:11;;;;;;;6.70;5.25;;;2.90;99.90;;;;;;4900047;29;20079;-77
2023/01/28 09:58:40;;;;;;;8.18;5.65;;;2.90;99.90;;;;;;4902752;29;20084;-78
2023/01/28 10:01:35;;;;;;;8.82;5.40;;;2.90;99.90;;;;;;4913549;29;20053;-77
2023/01/28 10:04:25;;;;;;;8.25;5.63;;;2.90;99.90;;;;;;4912431;29;20052;-78
2023/01/28 10:07:20;;;;;;;8.60;5.28;;;2.90;99.90;;;;;;4894586;29;20143;-78
2023/01/28 10:09:55;;;;;;;7.32;4.80;;;2.90;99.90;;;;;;4914422;29;20087;-78
2023/01/28 10:12:41;;;;;;;7.30;5.22;;;3.00;99.90;;;;;;4908079;29;20083;-78
2023/01/28 10:15:17;;;;;;;9.02;5.25;;;3.00;99.90;;;;;;4912738;29;20066;-77
2023/01/28 10:17:46;;;;;;;11.55;5.95;;;3.00;99.90;;;;;;4900291;29;20521;-77
2023/01/28 10:20:18;;;;;;;9.25;5.85;;;3.00;99.90;;;;;;4900463;29;20715;-78
2023/01/28 10:23:04;;;;;;;9.93;5.95;;;3.00;99.90;;;;;;4908030;29;20059;-78
2023/01/28 10:25:33;;;;;;;7.80;5.10;;;3.00;99.90;;;;;;4902905;29;20045;-77
2023/01/28 10:28:01;;;;;;;9.32;4.85;;;3.00;99.90;;;;;;4909039;29;20049;-78
2023/01/28 10:30:37;;;;;;;9.02;5.03;;;3.00;99.90;;;;;;4900070;29;20106;-78
2023/01/28 10:33:21;;;;;;;7.65;5.95;;;3.00;99.90;;;;;;4912229;29;20080;-78
2023/01/28 10:35:48;;;;;;;7.78;5.05;;;3.00;99.90;;;;;;4912198;29;20087;-78
2023/01/28 10:38:20;;;;;;;6.47;4.75;;;3.00;99.90;;;;;;4899406;29;20495;-78
2023/01/28 10:40:47;;;;;;;11.18;6.25;;;2.90;99.90;;;;;;4891279;29;20076;-78
2023/01/28 10:43:19;;;;;;;9.38;5.90;;;3.00;99.90;;;;;;4905892;29;20044;-78
2023/01/28 10:46:01;;;;;;;10.07;5.75;;;3.00;99.90;;;;;;4911125;29;20052;-78
2023/01/28 10:48:31;;;;;;;8.30;5.43;;;3.00;99.90;;;;;;4909046;29;20053;-78
2023/01/28 10:51:03;;;;;;;9.00;5.93;;;3.10;99.90;;;;;;4904236;29;20063;-77
2023/01/28 10:53:36;;;;;;;8.50;6.00;;;3.00;99.90;;;;;;4908000;29;20079;-78
2023/01/28 10:56:09;;;;;;;12.00;6.13;;;3.10;99.90;;;;;;4909317;29;20064;-78
2023/01/28 10:59:05;;;;;;;9.13;5.53;;;3.10;99.90;;;;;;4908948;29;20562;-78
2023/01/28 11:01:49;;;;;;;9.43;5.20;;;3.10;99.90;;;;;;4894235;29;20088;-77
2023/01/28 11:04:29;;;;;;;7.93;5.28;;;3.20;99.90;;;;;;4911700;29;20554;-78
2023/01/28 11:07:05;;;;;;;9.43;6.13;;;3.20;99.90;;;;;;4907559;29;20131;-78
2023/01/28 11:09:35;;;;;;;8.35;5.13;;;3.20;99.90;;;;;;4905976;29;20171;-78
2023/01/28 11:12:22;;;;;;;7.95;5.38;;;3.30;99.90;;;;;;4908592;29;20058;-77
2023/01/28 11:14:56;;;;;;;7.22;5.07;;;3.30;99.90;;;;;;4909800;29;20055;-78
2023/01/28 11:17:26;;;;;;;9.55;5.45;;;3.30;99.90;;;;;;4905699;29;20506;-78
2023/01/28 11:19:55;;;;;;;9.45;5.72;;;3.40;99.90;;;;;;4908824;29;20445;-77
2023/01/28 11:22:42;;;;;;;10.20;5.60;;;3.50;99.90;;;;;;4896878;29;20056;-76
2023/01/28 11:25:32;;;;;;;7.78;5.18;;;3.50;99.90;;;;;;4907371;29;20128;-77
2023/01/28 11:28:02;;;;;;;7.47;5.45;;;3.60;99.90;;;;;;4906394;29;20072;-78
2023/01/28 11:30:32;;;;;;;10.40;5.85;;;3.60;99.90;;;;;;4909454;29;20044;-78
2023/01/28 11:33:18;;;;;;;7.70;3.75;;;3.70;99.90;;;;;;4892310;29;20083;-78
2023/01/28 11:36:24;;;;;;;4.32;3.00;;;3.70;99.90;;;;;;4896218;29;20060;-78
2023/01/28 11:39:15;;;;;;;4.80;3.72;;;3.60;99.90;;;;;;4880848;29;20044;-78
2023/01/28 11:41:42;;;;;;;4.82;3.50;;;3.60;99.90;;;;;;4893748;29;20147;-78
2023/01/28 11:44:22;;;;;;;7.82;5.35;;;3.60;99.90;;;;;;4911230;29;20503;-78
2023/01/28 11:47:01;;;;;;;7.78;5.55;;;3.50;99.90;;;;;;4906378;29;20048;-78
2023/01/28 11:49:55;;;;;;;13.32;7.82;;;3.50;99.90;;;;;;4909723;29;20576;-77
2023/01/28 11:52:31;;;;;;;8.55;5.43;;;3.50;99.90;;;;;;4906620;29;20056;-78
2023/01/28 11:55:41;;;;;;;6.28;4.47;;;3.50;99.90;;;;;;4910939;29;20048;-78
2023/01/28 11:58:22;;;;;;;2.75;2.35;;;3.60;99.90;;;;;;4896040;29;20044;-79
2023/01/28 12:01:13;;;;;;;3.40;2.60;;;3.60;99.90;;;;;;4909707;29;20140;-81
2023/01/28 12:04:13;;;;;;;5.07;3.50;;;3.60;99.90;;;;;;4907889;29;20084;-81
2023/01/28 12:06:46;;;;;;;;;;;3.70;99.90;;;;;;4909826;29;20080;-79
2023/01/28 12:09:22;;;;;;;3.72;2.95;;;3.70;99.90;;;;;;4908088;29;19978;-80
2023/01/28 12:12:25;;;;;;;7.43;3.30;;;3.70;99.90;;;;;;4910811;29;20058;-79
2023/01/28 12:15:09;;;;;;;7.65;3.28;;;3.70;99.90;;;;;;4897321;29;20067;-79
2023/01/28 12:18:01;;;;;;;4.50;3.40;;;3.60;99.90;;;;;;4886652;29;20048;-79
2023/01/28 12:20:58;;;;;;;4.75;3.50;;;3.60;99.90;;;;;;4905041;29;20411;-79
2023/01/28 12:24:04;;;;;;;5.13;3.47;;;3.70;99.90;;;;;;4884888;29;20044;-79
2023/01/28 12:27:06;;;;;;;5.30;3.65;;;3.70;99.90;;;;;;4896273;29;20370;-80
2023/01/28 12:29:50;;;;;;;4.50;3.10;;;3.70;99.90;;;;;;4907085;29;20167;-80
2023/01/28 12:32:43;;;;;;;3.90;2.83;;;3.70;99.90;;;;;;4897865;29;20407;-80
2023/01/28 12:35:31;;;;;;;7.35;3.30;;;3.80;99.90;;;;;;4878172;29;20129;-80
2023/01/28 12:38:06;;;;;;;4.57;3.08;;;3.80;99.90;;;;;;4912157;29;20052;-80
2023/01/28 12:40:48;;;;;;;3.83;3.15;;;3.80;99.90;;;;;;4908090;29;20418;-80
2023/01/28 12:43:47;;;;;;;7.15;3.30;;;3.80;99.90;;;;;;4903339;29;20048;-80
2023/01/28 12:46:28;;;;;;;7.90;4.22;;;3.80;99.90;;;;;;4908303;29;20055;-79
2023/01/28 12:49:22;;;;;;;10.68;4.35;;;3.80;99.90;;;;;;4915547;29;20131;-79
2023/01/28 12:51:59;;;;;;;6.28;3.95;;;3.80;99.90;;;;;;4898436;29;20048;-79
2023/01/28 12:54:51;;;;;;;6.47;4.40;;;3.80;99.90;;;;;;4912620;29;20079;-80
2023/01/28 12:57:23;;;;;;;6.68;4.25;;;3.80;99.90;;;;;;4913082;29;20044;-80
2023/01/28 13:00:18;;;;;;;8.02;4.43;;;3.80;99.90;;;;;;4909364;29;20063;-79
2023/01/28 13:02:55;;;;;;;6.47;4.35;;;3.80;99.90;;;;;;4886532;29;20045;-79
2023/01/28 13:05:29;;;;;;;6.70;4.80;;;3.80;99.90;;;;;;4914393;29;20138;-80
2023/01/28 13:08:04;;;;;;;7.97;4.68;;;3.90;99.90;;;;;;4917959;29;20101;-80
2023/01/28 13:10:37;;;;;;;8.68;5.25;;;3.80;99.90;;;;;;4908885;29;20049;-79
2023/01/28 13:13:05;;;;;;;5.07;4.15;;;3.80;99.90;;;;;;4906079;29;20063;-80
2023/01/28 13:15:39;;;;;;;8.63;4.70;;;3.80;99.90;;;;;;4909812;29;20049;-80
2023/01/28 13:18:06;;;;;;;7.32;5.20;;;3.80;99.90;;;;;;4912424;29;20048;-80
2023/01/28 13:20:47;;;;;;;9.35;6.70;;;3.80;99.90;;;;;;4911482;29;20665;-80
2023/01/28 13:23:44;;;;;;;13.15;7.90;;;3.80;99.90;;;;;;4912496;29;20064;-80
2023/01/28 13:26:17;;;;;;;9.10;5.90;;;3.80;99.90;;;;;;4909542;29;20052;-81
2023/01/28 13:28:47;;;;;;;7.25;5.13;;;3.80;99.90;;;;;;4905174;29;20081;-79
2023/01/28 13:31:17;;;;;;;7.68;5.13;;;3.80;99.90;;;;;;4915710;29;20083;-79
2023/01/28 13:33:54;;;;;;;8.82;5.40;;;3.90;99.90;;;;;;4913467;29;20056;-80
2023/01/28 13:36:36;;;;;;;10.27;6.43;;;3.90;99.90;;;;;;4914488;29;20553;-79
2023/01/28 13:39:19;;;;;;;11.35;5.15;;;4.00;99.90;;;;;;4916524;29;20087;-79
2023/01/28 13:41:48;;;;;;;9.82;5.30;;;3.90;99.90;;;;;;4901616;29;20079;-80
2023/01/28 13:44:16;;;;;;;10.05;6.32;;;3.90;99.90;;;;;;4909014;29;20131;-79
2023/01/28 13:46:43;;;;;;;8.13;5.38;;;3.90;99.90;;;;;;4908669;29;20521;-79
2023/01/28 13:49:24;;;;;;;8.07;5.03;;;3.80;99.90;;;;;;4911411;29;20083;-80